sensor_id;sensor_type;location;lat;lon;timestamp;temperature;humidity
69436;SHT31;56625;54.322;18.582;2022-08-01T00:01:28;13.82;84.19
69436;SHT31;56625;54.322;18.582;2022-08-01T00:04:00;13.82;84.57
69436;SHT31;56625;54.322;18.582;2022-08-01T00:06:28;13.82;84.68
69436;SHT31;56625;54.322;18.582;2022-08-01T00:08:57;13.82;84.46
69436;SHT31;56625;54.322;18.582;2022-08-01T00:11:25;13.81;84.13
69436;SHT31;56625;54.322;18.582;2022-08-01T00:13:53;13.79;84.17
69436;SHT31;56625;54.322;18.582;2022-08-01T00:16:21;13.71;84.60
69436;SHT31;56625;54.322;18.582;2022-08-01T00:18:50;13.63;85.13
69436;SHT31;56625;54.322;18.582;2022-08-01T00:21:19;13.60;85.52
69436;SHT31;56625;54.322;18.582;2022-08-01T00:23:47;13.57;85.47
69436;SHT31;56625;54.322;18.582;2022-08-01T00:26:15;13.53;85.54
69436;SHT31;56625;54.322;18.582;2022-08-01T00:28:42;13.49;85.67
69436;SHT31;56625;54.322;18.582;2022-08-01T00:31:10;13.45;85.81
69436;SHT31;56625;54.322;18.582;2022-08-01T00:33:38;13.41;85.80
69436;SHT31;56625;54.322;18.582;2022-08-01T00:36:06;13.40;85.91
69436;SHT31;56625;54.322;18.582;2022-08-01T00:38:34;13.39;85.96
69436;SHT31;56625;54.322;18.582;2022-08-01T00:41:02;13.39;86.30
69436;SHT31;56625;54.322;18.582;2022-08-01T00:43:30;13.42;86.64
69436;SHT31;56625;54.322;18.582;2022-08-01T00:45:58;13.45;86.74
69436;SHT31;56625;54.322;18.582;2022-08-01T00:48:25;13.47;86.52
69436;SHT31;56625;54.322;18.582;2022-08-01T00:50:53;13.48;86.45
69436;SHT31;56625;54.322;18.582;2022-08-01T00:53:22;13.47;86.31
69436;SHT31;56625;54.322;18.582;2022-08-01T00:55:52;13.47;86.88
69436;SHT31;56625;54.322;18.582;2022-08-01T00:58:21;13.48;87.16
69436;SHT31;56625;54.322;18.582;2022-08-01T01:00:50;13.50;87.30
69436;SHT31;56625;54.322;18.582;2022-08-01T01:03:21;13.49;87.31
69436;SHT31;56625;54.322;18.582;2022-08-01T01:06:21;13.48;87.18
69436;SHT31;56625;54.322;18.582;2022-08-01T01:09:15;13.48;87.03
69436;SHT31;56625;54.322;18.582;2022-08-01T01:12:01;13.49;86.76
69436;SHT31;56625;54.322;18.582;2022-08-01T01:15:25;13.49;86.78
69436;SHT31;56625;54.322;18.582;2022-08-01T01:17:48;13.49;87.04
69436;SHT31;56625;54.322;18.582;2022-08-01T01:20:20;13.49;87.22
69436;SHT31;56625;54.322;18.582;2022-08-01T01:23:18;13.48;87.27
69436;SHT31;56625;54.322;18.582;2022-08-01T01:30:06;13.48;87.45
69436;SHT31;56625;54.322;18.582;2022-08-01T01:32:38;13.46;87.50
69436;SHT31;56625;54.322;18.582;2022-08-01T01:35:14;13.45;87.48
69436;SHT31;56625;54.322;18.582;2022-08-01T01:37:48;13.44;87.57
69436;SHT31;56625;54.322;18.582;2022-08-01T01:40:23;13.41;87.71
69436;SHT31;56625;54.322;18.582;2022-08-01T01:42:53;13.38;87.74
69436;SHT31;56625;54.322;18.582;2022-08-01T01:45:24;13.33;87.80
69436;SHT31;56625;54.322;18.582;2022-08-01T01:47:54;13.31;87.73
69436;SHT31;56625;54.322;18.582;2022-08-01T01:50:24;13.27;87.71
69436;SHT31;56625;54.322;18.582;2022-08-01T01:52:53;13.23;87.73
69436;SHT31;56625;54.322;18.582;2022-08-01T01:55:23;13.18;87.76
69436;SHT31;56625;54.322;18.582;2022-08-01T01:57:53;13.14;87.73
69436;SHT31;56625;54.322;18.582;2022-08-01T02:00:24;13.10;87.81
69436;SHT31;56625;54.322;18.582;2022-08-01T02:02:54;13.09;87.89
69436;SHT31;56625;54.322;18.582;2022-08-01T02:05:24;13.09;87.87
69436;SHT31;56625;54.322;18.582;2022-08-01T02:07:55;13.10;87.99
69436;SHT31;56625;54.322;18.582;2022-08-01T02:10:26;13.12;88.39
69436;SHT31;56625;54.322;18.582;2022-08-01T02:12:56;13.13;88.53
69436;SHT31;56625;54.322;18.582;2022-08-01T02:15:27;13.15;88.50
69436;SHT31;56625;54.322;18.582;2022-08-01T02:17:57;13.18;88.46
69436;SHT31;56625;54.322;18.582;2022-08-01T02:20:29;13.19;88.45
69436;SHT31;56625;54.322;18.582;2022-08-01T02:23:06;13.19;88.51
69436;SHT31;56625;54.322;18.582;2022-08-01T02:25:44;13.18;88.39
69436;SHT31;56625;54.322;18.582;2022-08-01T02:28:50;13.18;88.33
69436;SHT31;56625;54.322;18.582;2022-08-01T02:31:26;13.18;88.40
69436;SHT31;56625;54.322;18.582;2022-08-01T02:34:02;13.16;88.42
69436;SHT31;56625;54.322;18.582;2022-08-01T02:36:36;13.14;88.48
69436;SHT31;56625;54.322;18.582;2022-08-01T02:39:09;13.15;88.41
69436;SHT31;56625;54.322;18.582;2022-08-01T02:41:43;13.15;88.40
69436;SHT31;56625;54.322;18.582;2022-08-01T02:44:23;13.14;88.51
69436;SHT31;56625;54.322;18.582;2022-08-01T02:46:56;13.14;88.63
69436;SHT31;56625;54.322;18.582;2022-08-01T02:49:41;13.14;88.60
69436;SHT31;56625;54.322;18.582;2022-08-01T02:52:20;13.17;88.78
69436;SHT31;56625;54.322;18.582;2022-08-01T02:54:53;13.22;89.06
69436;SHT31;56625;54.322;18.582;2022-08-01T02:57:23;13.30;89.20
69436;SHT31;56625;54.322;18.582;2022-08-01T03:00:15;13.36;89.14
69436;SHT31;56625;54.322;18.582;2022-08-01T03:02:44;13.41;89.04
69436;SHT31;56625;54.322;18.582;2022-08-01T03:05:15;13.46;88.80
69436;SHT31;56625;54.322;18.582;2022-08-01T03:07:45;13.48;88.87
69436;SHT31;56625;54.322;18.582;2022-08-01T03:10:15;13.54;88.98
69436;SHT31;56625;54.322;18.582;2022-08-01T03:12:45;13.59;88.95
69436;SHT31;56625;54.322;18.582;2022-08-01T03:15:16;13.64;88.70
69436;SHT31;56625;54.322;18.582;2022-08-01T03:17:46;13.67;88.56
69436;SHT31;56625;54.322;18.582;2022-08-01T03:20:18;13.67;88.47
69436;SHT31;56625;54.322;18.582;2022-08-01T03:22:52;13.68;88.32
69436;SHT31;56625;54.322;18.582;2022-08-01T03:25:22;13.68;88.23
69436;SHT31;56625;54.322;18.582;2022-08-01T03:27:56;13.70;88.15
69436;SHT31;56625;54.322;18.582;2022-08-01T03:30:28;13.73;88.13
69436;SHT31;56625;54.322;18.582;2022-08-01T03:32:58;13.75;88.03
69436;SHT31;56625;54.322;18.582;2022-08-01T03:35:29;13.78;88.10
69436;SHT31;56625;54.322;18.582;2022-08-01T03:38:05;13.82;88.16
69436;SHT31;56625;54.322;18.582;2022-08-01T03:40:59;13.92;88.08
69436;SHT31;56625;54.322;18.582;2022-08-01T03:43:38;14.12;87.77
69436;SHT31;56625;54.322;18.582;2022-08-01T03:46:22;14.40;87.20
69436;SHT31;56625;54.322;18.582;2022-08-01T03:49:00;14.72;86.38
69436;SHT31;56625;54.322;18.582;2022-08-01T03:51:40;15.05;85.48
69436;SHT31;56625;54.322;18.582;2022-08-01T03:54:08;15.43;84.61
69436;SHT31;56625;54.322;18.582;2022-08-01T03:56:39;15.82;83.51
69436;SHT31;56625;54.322;18.582;2022-08-01T03:59:09;16.20;82.39
69436;SHT31;56625;54.322;18.582;2022-08-01T04:01:38;16.56;81.25
69436;SHT31;56625;54.322;18.582;2022-08-01T04:04:06;16.83;80.30
69436;SHT31;56625;54.322;18.582;2022-08-01T04:06:37;17.09;79.75
69436;SHT31;56625;54.322;18.582;2022-08-01T04:09:06;17.38;78.76
69436;SHT31;56625;54.322;18.582;2022-08-01T04:11:40;17.61;78.01
69436;SHT31;56625;54.322;18.582;2022-08-01T04:14:11;17.83;77.32
69436;SHT31;56625;54.322;18.582;2022-08-01T04:16:39;18.00;76.68
69436;SHT31;56625;54.322;18.582;2022-08-01T04:19:06;18.03;76.18
69436;SHT31;56625;54.322;18.582;2022-08-01T04:21:37;18.02;76.23
69436;SHT31;56625;54.322;18.582;2022-08-01T04:24:15;18.09;76.31
69436;SHT31;56625;54.322;18.582;2022-08-01T04:26:46;18.18;76.80
69436;SHT31;56625;54.322;18.582;2022-08-01T04:29:19;18.27;76.38
69436;SHT31;56625;54.322;18.582;2022-08-01T04:31:49;18.24;75.78
69436;SHT31;56625;54.322;18.582;2022-08-01T04:34:22;18.18;75.78
69436;SHT31;56625;54.322;18.582;2022-08-01T04:36:54;18.03;75.69
69436;SHT31;56625;54.322;18.582;2022-08-01T04:39:23;17.83;76.07
69436;SHT31;56625;54.322;18.582;2022-08-01T04:41:55;17.74;76.46
69436;SHT31;56625;54.322;18.582;2022-08-01T04:44:27;17.75;76.45
69436;SHT31;56625;54.322;18.582;2022-08-01T04:46:59;17.65;76.74
69436;SHT31;56625;54.322;18.582;2022-08-01T04:49:31;17.50;76.76
69436;SHT31;56625;54.322;18.582;2022-08-01T04:52:15;17.35;76.95
69436;SHT31;56625;54.322;18.582;2022-08-01T04:54:51;17.29;77.15
69436;SHT31;56625;54.322;18.582;2022-08-01T04:57:18;17.24;77.38
69436;SHT31;56625;54.322;18.582;2022-08-01T04:59:46;17.19;77.55
69436;SHT31;56625;54.322;18.582;2022-08-01T05:02:17;17.17;77.62
69436;SHT31;56625;54.322;18.582;2022-08-01T05:04:46;17.18;77.59
69436;SHT31;56625;54.322;18.582;2022-08-01T05:07:14;17.18;77.61
69436;SHT31;56625;54.322;18.582;2022-08-01T05:09:43;17.20;77.85
69436;SHT31;56625;54.322;18.582;2022-08-01T05:12:13;17.31;78.14
69436;SHT31;56625;54.322;18.582;2022-08-01T05:14:41;17.36;77.55
69436;SHT31;56625;54.322;18.582;2022-08-01T05:17:09;17.30;77.53
69436;SHT31;56625;54.322;18.582;2022-08-01T05:19:38;17.28;77.88
69436;SHT31;56625;54.322;18.582;2022-08-01T05:22:08;17.34;77.69
69436;SHT31;56625;54.322;18.582;2022-08-01T05:24:37;17.38;77.41
69436;SHT31;56625;54.322;18.582;2022-08-01T05:27:09;17.41;77.09
69436;SHT31;56625;54.322;18.582;2022-08-01T05:29:41;17.50;76.89
69436;SHT31;56625;54.322;18.582;2022-08-01T05:32:11;17.55;76.45
69436;SHT31;56625;54.322;18.582;2022-08-01T05:34:39;17.57;76.42
69436;SHT31;56625;54.322;18.582;2022-08-01T05:37:07;17.65;76.25
69436;SHT31;56625;54.322;18.582;2022-08-01T05:39:38;17.73;76.20
69436;SHT31;56625;54.322;18.582;2022-08-01T05:42:16;17.92;75.84
69436;SHT31;56625;54.322;18.582;2022-08-01T05:44:46;18.07;75.39
69436;SHT31;56625;54.322;18.582;2022-08-01T05:47:15;18.17;74.96
69436;SHT31;56625;54.322;18.582;2022-08-01T05:49:44;18.17;75.06
69436;SHT31;56625;54.322;18.582;2022-08-01T05:52:15;18.15;75.25
69436;SHT31;56625;54.322;18.582;2022-08-01T05:54:43;18.23;75.40
69436;SHT31;56625;54.322;18.582;2022-08-01T05:57:11;18.32;75.17
69436;SHT31;56625;54.322;18.582;2022-08-01T05:59:41;18.36;75.14
69436;SHT31;56625;54.322;18.582;2022-08-01T06:02:09;18.32;75.11
69436;SHT31;56625;54.322;18.582;2022-08-01T06:04:43;18.28;75.28
69436;SHT31;56625;54.322;18.582;2022-08-01T06:07:11;18.27;75.43
69436;SHT31;56625;54.322;18.582;2022-08-01T06:09:38;18.34;75.42
69436;SHT31;56625;54.322;18.582;2022-08-01T06:12:06;18.45;74.82
69436;SHT31;56625;54.322;18.582;2022-08-01T06:14:35;18.60;74.59
69436;SHT31;56625;54.322;18.582;2022-08-01T06:17:02;18.74;73.51
69436;SHT31;56625;54.322;18.582;2022-08-01T06:19:30;18.91;73.43
69436;SHT31;56625;54.322;18.582;2022-08-01T06:21:58;19.14;72.34
69436;SHT31;56625;54.322;18.582;2022-08-01T06:24:26;19.31;71.25
69436;SHT31;56625;54.322;18.582;2022-08-01T06:26:54;19.40;70.56
69436;SHT31;56625;54.322;18.582;2022-08-01T06:29:22;19.52;69.61
69436;SHT31;56625;54.322;18.582;2022-08-01T06:31:50;19.60;68.42
69436;SHT31;56625;54.322;18.582;2022-08-01T06:34:17;19.72;68.03
69436;SHT31;56625;54.322;18.582;2022-08-01T06:36:49;19.80;68.04
69436;SHT31;56625;54.322;18.582;2022-08-01T06:39:17;19.85;67.17
69436;SHT31;56625;54.322;18.582;2022-08-01T06:41:45;19.86;66.94
69436;SHT31;56625;54.322;18.582;2022-08-01T06:44:23;19.93;67.33
69436;SHT31;56625;54.322;18.582;2022-08-01T06:46:53;20.14;66.97
69436;SHT31;56625;54.322;18.582;2022-08-01T06:49:20;20.33;66.15
69436;SHT31;56625;54.322;18.582;2022-08-01T06:51:48;20.37;65.41
69436;SHT31;56625;54.322;18.582;2022-08-01T06:54:16;20.36;64.54
69436;SHT31;56625;54.322;18.582;2022-08-01T06:56:44;20.41;65.23
69436;SHT31;56625;54.322;18.582;2022-08-01T06:59:15;20.47;65.27
69436;SHT31;56625;54.322;18.582;2022-08-01T07:01:43;20.61;65.74
69436;SHT31;56625;54.322;18.582;2022-08-01T07:05:00;20.90;64.32
69436;SHT31;56625;54.322;18.582;2022-08-01T07:07:42;21.16;63.99
69436;SHT31;56625;54.322;18.582;2022-08-01T07:10:55;21.38;62.30
69436;SHT31;56625;54.322;18.582;2022-08-01T07:14:05;21.55;62.00
69436;SHT31;56625;54.322;18.582;2022-08-01T07:16:38;21.74;60.40
69436;SHT31;56625;54.322;18.582;2022-08-01T07:19:10;21.95;60.51
69436;SHT31;56625;54.322;18.582;2022-08-01T07:21:43;22.13;57.98
69436;SHT31;56625;54.322;18.582;2022-08-01T07:24:24;22.22;57.60
69436;SHT31;56625;54.322;18.582;2022-08-01T07:26:55;22.29;57.54
69436;SHT31;56625;54.322;18.582;2022-08-01T07:29:47;22.27;56.08
69436;SHT31;56625;54.322;18.582;2022-08-01T07:32:15;22.27;55.68
69436;SHT31;56625;54.322;18.582;2022-08-01T07:34:44;22.34;56.31
69436;SHT31;56625;54.322;18.582;2022-08-01T07:37:12;22.61;56.33
69436;SHT31;56625;54.322;18.582;2022-08-01T07:39:40;22.98;56.04
69436;SHT31;56625;54.322;18.582;2022-08-01T07:42:08;23.31;56.12
69436;SHT31;56625;54.322;18.582;2022-08-01T07:44:37;23.54;55.66
69436;SHT31;56625;54.322;18.582;2022-08-01T07:47:05;23.66;53.09
69436;SHT31;56625;54.322;18.582;2022-08-01T07:49:33;23.70;52.68
69436;SHT31;56625;54.322;18.582;2022-08-01T07:52:07;23.86;52.46
69436;SHT31;56625;54.322;18.582;2022-08-01T07:54:35;23.79;50.25
69436;SHT31;56625;54.322;18.582;2022-08-01T07:57:03;23.77;49.99
69436;SHT31;56625;54.322;18.582;2022-08-01T07:59:32;23.54;49.05
69436;SHT31;56625;54.322;18.582;2022-08-01T08:02:00;23.24;50.33
69436;SHT31;56625;54.322;18.582;2022-08-01T08:04:29;23.06;50.94
69436;SHT31;56625;54.322;18.582;2022-08-01T08:06:56;23.03;50.77
69436;SHT31;56625;54.322;18.582;2022-08-01T08:09:24;23.26;52.09
69436;SHT31;56625;54.322;18.582;2022-08-01T08:11:52;23.52;52.15
69436;SHT31;56625;54.322;18.582;2022-08-01T08:14:20;23.84;51.14
69436;SHT31;56625;54.322;18.582;2022-08-01T08:16:59;24.11;50.65
69436;SHT31;56625;54.322;18.582;2022-08-01T08:19:28;24.28;49.90
69436;SHT31;56625;54.322;18.582;2022-08-01T08:22:05;24.48;49.77
69436;SHT31;56625;54.322;18.582;2022-08-01T08:24:36;24.75;49.55
69436;SHT31;56625;54.322;18.582;2022-08-01T08:27:13;24.97;47.58
69436;SHT31;56625;54.322;18.582;2022-08-01T08:29:42;24.85;46.11
69436;SHT31;56625;54.322;18.582;2022-08-01T08:32:11;24.57;46.23
69436;SHT31;56625;54.322;18.582;2022-08-01T08:34:39;24.24;46.28
69436;SHT31;56625;54.322;18.582;2022-08-01T08:37:07;24.04;46.76
69436;SHT31;56625;54.322;18.582;2022-08-01T08:39:36;23.84;47.40
69436;SHT31;56625;54.322;18.582;2022-08-01T08:42:09;23.68;47.41
69436;SHT31;56625;54.322;18.582;2022-08-01T08:44:42;23.86;49.19
69436;SHT31;56625;54.322;18.582;2022-08-01T08:47:11;24.25;47.43
69436;SHT31;56625;54.322;18.582;2022-08-01T08:49:47;24.26;46.35
69436;SHT31;56625;54.322;18.582;2022-08-01T08:52:18;24.37;46.84
69436;SHT31;56625;54.322;18.582;2022-08-01T08:54:49;24.55;46.29
69436;SHT31;56625;54.322;18.582;2022-08-01T08:57:19;24.66;45.09
69436;SHT31;56625;54.322;18.582;2022-08-01T08:59:48;24.74;46.17
69436;SHT31;56625;54.322;18.582;2022-08-01T09:02:20;25.04;45.87
69436;SHT31;56625;54.322;18.582;2022-08-01T09:04:50;25.25;44.28
69436;SHT31;56625;54.322;18.582;2022-08-01T09:07:18;25.38;44.89
69436;SHT31;56625;54.322;18.582;2022-08-01T09:09:46;25.65;43.86
69436;SHT31;56625;54.322;18.582;2022-08-01T09:12:18;25.73;43.00
69436;SHT31;56625;54.322;18.582;2022-08-01T09:14:47;25.93;43.63
69436;SHT31;56625;54.322;18.582;2022-08-01T09:17:17;26.17;42.67
69436;SHT31;56625;54.322;18.582;2022-08-01T09:19:50;26.28;42.69
69436;SHT31;56625;54.322;18.582;2022-08-01T09:22:30;26.22;44.17
69436;SHT31;56625;54.322;18.582;2022-08-01T09:25:02;26.15;43.78
69436;SHT31;56625;54.322;18.582;2022-08-01T09:27:40;25.85;44.42
69436;SHT31;56625;54.322;18.582;2022-08-01T09:30:19;25.71;44.74
69436;SHT31;56625;54.322;18.582;2022-08-01T09:32:54;25.65;45.43
69436;SHT31;56625;54.322;18.582;2022-08-01T09:35:44;25.60;44.88
69436;SHT31;56625;54.322;18.582;2022-08-01T09:38:25;25.72;44.65
69436;SHT31;56625;54.322;18.582;2022-08-01T09:40:58;25.77;43.90
69436;SHT31;56625;54.322;18.582;2022-08-01T09:43:30;25.84;43.44
69436;SHT31;56625;54.322;18.582;2022-08-01T09:46:02;25.83;43.40
69436;SHT31;56625;54.322;18.582;2022-08-01T09:48:42;25.83;44.14
69436;SHT31;56625;54.322;18.582;2022-08-01T09:51:38;26.00;43.55
69436;SHT31;56625;54.322;18.582;2022-08-01T09:54:33;26.01;42.99
69436;SHT31;56625;54.322;18.582;2022-08-01T09:57:11;26.11;43.27
69436;SHT31;56625;54.322;18.582;2022-08-01T09:59:47;26.34;43.93
69436;SHT31;56625;54.322;18.582;2022-08-01T10:02:31;26.35;43.94
69436;SHT31;56625;54.322;18.582;2022-08-01T10:05:06;26.17;44.59
69436;SHT31;56625;54.322;18.582;2022-08-01T10:08:01;26.04;44.74
69436;SHT31;56625;54.322;18.582;2022-08-01T10:10:34;26.05;44.77
69436;SHT31;56625;54.322;18.582;2022-08-01T10:13:03;26.21;44.20
69436;SHT31;56625;54.322;18.582;2022-08-01T10:15:36;26.39;44.06
69436;SHT31;56625;54.322;18.582;2022-08-01T10:18:08;26.45;43.55
69436;SHT31;56625;54.322;18.582;2022-08-01T10:20:53;26.28;43.55
69436;SHT31;56625;54.322;18.582;2022-08-01T10:23:27;25.95;43.79
69436;SHT31;56625;54.322;18.582;2022-08-01T10:26:07;25.70;44.54
69436;SHT31;56625;54.322;18.582;2022-08-01T10:28:39;25.55;45.04
69436;SHT31;56625;54.322;18.582;2022-08-01T10:31:12;25.31;44.67
69436;SHT31;56625;54.322;18.582;2022-08-01T10:33:41;25.16;44.96
69436;SHT31;56625;54.322;18.582;2022-08-01T10:36:20;25.08;45.64
69436;SHT31;56625;54.322;18.582;2022-08-01T10:38:53;25.01;46.01
69436;SHT31;56625;54.322;18.582;2022-08-01T10:41:23;24.83;46.35
69436;SHT31;56625;54.322;18.582;2022-08-01T10:43:53;24.63;47.04
69436;SHT31;56625;54.322;18.582;2022-08-01T10:46:23;24.45;47.47
69436;SHT31;56625;54.322;18.582;2022-08-01T10:48:56;24.35;47.74
69436;SHT31;56625;54.322;18.582;2022-08-01T10:51:49;24.35;47.97
69436;SHT31;56625;54.322;18.582;2022-08-01T10:54:23;24.23;47.99
69436;SHT31;56625;54.322;18.582;2022-08-01T10:56:53;24.10;48.03
69436;SHT31;56625;54.322;18.582;2022-08-01T10:59:28;24.05;47.57
69436;SHT31;56625;54.322;18.582;2022-08-01T11:02:30;24.04;48.31
69436;SHT31;56625;54.322;18.582;2022-08-01T11:05:03;24.22;48.78
69436;SHT31;56625;54.322;18.582;2022-08-01T11:07:46;24.57;48.25
69436;SHT31;56625;54.322;18.582;2022-08-01T11:13:11;25.09;46.82
69436;SHT31;56625;54.322;18.582;2022-08-01T11:15:40;25.27;46.60
69436;SHT31;56625;54.322;18.582;2022-08-01T11:20:58;25.68;45.83
69436;SHT31;56625;54.322;18.582;2022-08-01T11:23:49;25.87;44.64
69436;SHT31;56625;54.322;18.582;2022-08-01T11:26:21;25.86;44.59
69436;SHT31;56625;54.322;18.582;2022-08-01T11:29:13;25.73;44.03
69436;SHT31;56625;54.322;18.582;2022-08-01T11:31:48;25.50;44.13
69436;SHT31;56625;54.322;18.582;2022-08-01T11:34:17;25.32;44.77
69436;SHT31;56625;54.322;18.582;2022-08-01T11:36:46;25.30;44.51
69436;SHT31;56625;54.322;18.582;2022-08-01T11:39:29;25.27;44.44
69436;SHT31;56625;54.322;18.582;2022-08-01T11:42:17;25.23;44.68
69436;SHT31;56625;54.322;18.582;2022-08-01T11:44:48;25.28;45.42
69436;SHT31;56625;54.322;18.582;2022-08-01T11:47:17;25.45;45.59
69436;SHT31;56625;54.322;18.582;2022-08-01T11:49:48;25.55;45.19
69436;SHT31;56625;54.322;18.582;2022-08-01T11:57:37;25.73;44.15
69436;SHT31;56625;54.322;18.582;2022-08-01T12:00:17;25.73;44.39
69436;SHT31;56625;54.322;18.582;2022-08-01T12:02:46;25.79;44.25
69436;SHT31;56625;54.322;18.582;2022-08-01T12:05:25;26.00;44.52
69436;SHT31;56625;54.322;18.582;2022-08-01T12:07:57;26.02;43.65
69436;SHT31;56625;54.322;18.582;2022-08-01T12:10:29;25.88;44.24
69436;SHT31;56625;54.322;18.582;2022-08-01T12:13:16;25.93;44.76
69436;SHT31;56625;54.322;18.582;2022-08-01T12:15:45;26.00;45.10
69436;SHT31;56625;54.322;18.582;2022-08-01T12:18:18;25.87;46.24
69436;SHT31;56625;54.322;18.582;2022-08-01T12:20:47;25.89;46.23
69436;SHT31;56625;54.322;18.582;2022-08-01T12:23:23;25.88;46.39
69436;SHT31;56625;54.322;18.582;2022-08-01T12:25:52;25.97;45.94
69436;SHT31;56625;54.322;18.582;2022-08-01T12:28:21;26.07;45.94
69436;SHT31;56625;54.322;18.582;2022-08-01T12:30:50;26.19;45.60
69436;SHT31;56625;54.322;18.582;2022-08-01T12:33:18;26.17;45.39
69436;SHT31;56625;54.322;18.582;2022-08-01T12:35:48;26.22;45.82
69436;SHT31;56625;54.322;18.582;2022-08-01T12:38:17;26.23;46.01
69436;SHT31;56625;54.322;18.582;2022-08-01T12:40:50;26.08;46.66
69436;SHT31;56625;54.322;18.582;2022-08-01T12:43:21;26.01;47.01
69436;SHT31;56625;54.322;18.582;2022-08-01T12:45:57;25.92;46.95
69436;SHT31;56625;54.322;18.582;2022-08-01T12:48:28;25.82;46.83
69436;SHT31;56625;54.322;18.582;2022-08-01T12:50:58;25.72;46.80
69436;SHT31;56625;54.322;18.582;2022-08-01T12:53:34;25.61;47.22
69436;SHT31;56625;54.322;18.582;2022-08-01T12:56:08;25.74;47.50
69436;SHT31;56625;54.322;18.582;2022-08-01T12:58:38;25.80;47.41
69436;SHT31;56625;54.322;18.582;2022-08-01T13:01:10;25.86;47.33
69436;SHT31;56625;54.322;18.582;2022-08-01T13:03:40;25.84;47.20
69436;SHT31;56625;54.322;18.582;2022-08-01T13:06:12;25.65;47.77
69436;SHT31;56625;54.322;18.582;2022-08-01T13:08:44;25.53;47.83
69436;SHT31;56625;54.322;18.582;2022-08-01T13:11:14;25.47;47.80
69436;SHT31;56625;54.322;18.582;2022-08-01T13:16:18;25.63;47.39
69436;SHT31;56625;54.322;18.582;2022-08-01T13:19:12;25.65;47.13
69436;SHT31;56625;54.322;18.582;2022-08-01T13:21:52;25.56;47.40
69436;SHT31;56625;54.322;18.582;2022-08-01T13:24:25;25.64;47.70
69436;SHT31;56625;54.322;18.582;2022-08-01T13:26:57;25.69;47.46
69436;SHT31;56625;54.322;18.582;2022-08-01T13:29:35;25.62;47.52
69436;SHT31;56625;54.322;18.582;2022-08-01T13:32:14;25.55;47.63
69436;SHT31;56625;54.322;18.582;2022-08-01T13:35:00;25.57;47.49
69436;SHT31;56625;54.322;18.582;2022-08-01T13:37:33;25.63;47.62
69436;SHT31;56625;54.322;18.582;2022-08-01T13:40:03;25.53;47.70
69436;SHT31;56625;54.322;18.582;2022-08-01T13:42:32;25.47;48.26
69436;SHT31;56625;54.322;18.582;2022-08-01T13:45:00;25.34;48.50
69436;SHT31;56625;54.322;18.582;2022-08-01T13:47:29;24.98;49.42
69436;SHT31;56625;54.322;18.582;2022-08-01T13:49:59;24.73;50.22
69436;SHT31;56625;54.322;18.582;2022-08-01T13:52:30;24.54;50.90
69436;SHT31;56625;54.322;18.582;2022-08-01T13:54:59;24.30;51.00
69436;SHT31;56625;54.322;18.582;2022-08-01T13:57:28;24.17;51.74
69436;SHT31;56625;54.322;18.582;2022-08-01T14:00:04;24.05;51.73
69436;SHT31;56625;54.322;18.582;2022-08-01T14:02:35;23.93;52.70
69436;SHT31;56625;54.322;18.582;2022-08-01T14:05:03;23.80;53.62
69436;SHT31;56625;54.322;18.582;2022-08-01T14:07:32;23.72;54.28
69436;SHT31;56625;54.322;18.582;2022-08-01T14:10:00;23.67;54.40
69436;SHT31;56625;54.322;18.582;2022-08-01T14:12:47;23.57;54.23
69436;SHT31;56625;54.322;18.582;2022-08-01T14:15:15;23.55;54.97
69436;SHT31;56625;54.322;18.582;2022-08-01T14:18:05;23.60;54.67
69436;SHT31;56625;54.322;18.582;2022-08-01T14:20:37;23.64;54.03
69436;SHT31;56625;54.322;18.582;2022-08-01T14:23:06;23.71;53.53
69436;SHT31;56625;54.322;18.582;2022-08-01T14:25:36;23.65;53.47
69436;SHT31;56625;54.322;18.582;2022-08-01T14:28:25;23.57;53.99
69436;SHT31;56625;54.322;18.582;2022-08-01T14:30:56;23.55;53.98
69436;SHT31;56625;54.322;18.582;2022-08-01T14:33:25;23.51;54.34
69436;SHT31;56625;54.322;18.582;2022-08-01T14:35:54;23.46;54.52
69436;SHT31;56625;54.322;18.582;2022-08-01T14:38:43;23.41;54.88
69436;SHT31;56625;54.322;18.582;2022-08-01T14:41:15;23.35;55.35
69436;SHT31;56625;54.322;18.582;2022-08-01T14:43:43;23.28;55.57
69436;SHT31;56625;54.322;18.582;2022-08-01T14:46:12;23.29;55.71
69436;SHT31;56625;54.322;18.582;2022-08-01T14:48:40;23.31;55.58
69436;SHT31;56625;54.322;18.582;2022-08-01T14:51:08;23.38;55.40
69436;SHT31;56625;54.322;18.582;2022-08-01T14:53:37;23.33;55.39
69436;SHT31;56625;54.322;18.582;2022-08-01T14:56:05;23.25;55.61
69436;SHT31;56625;54.322;18.582;2022-08-01T14:58:34;23.31;55.63
69436;SHT31;56625;54.322;18.582;2022-08-01T15:01:02;23.39;55.30
69436;SHT31;56625;54.322;18.582;2022-08-01T15:03:32;23.42;55.12
69436;SHT31;56625;54.322;18.582;2022-08-01T15:06:00;23.44;55.09
69436;SHT31;56625;54.322;18.582;2022-08-01T15:08:27;23.47;55.15
69436;SHT31;56625;54.322;18.582;2022-08-01T15:10:57;23.47;55.26
69436;SHT31;56625;54.322;18.582;2022-08-01T15:13:25;23.50;55.21
69436;SHT31;56625;54.322;18.582;2022-08-01T15:15:53;23.52;54.81
69436;SHT31;56625;54.322;18.582;2022-08-01T15:18:27;23.52;54.61
69436;SHT31;56625;54.322;18.582;2022-08-01T15:20:56;23.47;54.43
69436;SHT31;56625;54.322;18.582;2022-08-01T15:23:24;23.46;54.57
69436;SHT31;56625;54.322;18.582;2022-08-01T15:25:52;23.44;54.46
69436;SHT31;56625;54.322;18.582;2022-08-01T15:28:20;23.40;54.51
69436;SHT31;56625;54.322;18.582;2022-08-01T15:30:48;23.44;54.48
69436;SHT31;56625;54.322;18.582;2022-08-01T15:33:16;23.53;54.26
69436;SHT31;56625;54.322;18.582;2022-08-01T15:35:44;23.58;54.03
69436;SHT31;56625;54.322;18.582;2022-08-01T15:38:12;23.54;54.24
69436;SHT31;56625;54.322;18.582;2022-08-01T15:40:40;23.51;54.21
69436;SHT31;56625;54.322;18.582;2022-08-01T15:43:08;23.44;54.28
69436;SHT31;56625;54.322;18.582;2022-08-01T15:45:41;23.44;53.91
69436;SHT31;56625;54.322;18.582;2022-08-01T15:48:15;23.42;54.01
69436;SHT31;56625;54.322;18.582;2022-08-01T15:50:44;23.47;54.36
69436;SHT31;56625;54.322;18.582;2022-08-01T15:53:12;23.48;54.43
69436;SHT31;56625;54.322;18.582;2022-08-01T15:55:40;23.44;54.27
69436;SHT31;56625;54.322;18.582;2022-08-01T15:58:15;23.46;54.24
69436;SHT31;56625;54.322;18.582;2022-08-01T16:00:43;23.49;54.19
69436;SHT31;56625;54.322;18.582;2022-08-01T16:03:10;23.50;54.19
69436;SHT31;56625;54.322;18.582;2022-08-01T16:05:38;23.50;54.24
69436;SHT31;56625;54.322;18.582;2022-08-01T16:08:10;23.55;54.17